createdAt,value
2018-08-23T00:00:43.792Z,58.80
2018-08-23T00:03:17.388Z,59.10
2018-08-23T00:05:52.735Z,59.40
2018-08-23T00:08:21.332Z,59.70
2018-08-23T00:10:52.067Z,59.70
2018-08-23T00:13:24.324Z,59.60
2018-08-23T00:15:52.494Z,60.50
2018-08-23T00:18:20.647Z,59.70
2018-08-23T00:23:16.729Z,60.40
2018-08-23T00:25:44.910Z,60.30
2018-08-23T00:28:13.067Z,60.60
2018-08-23T00:30:43.160Z,61.70
2018-08-23T00:33:11.305Z,61.80
2018-08-23T00:35:39.508Z,61.90
2018-08-23T00:38:08.128Z,61.50
2018-08-23T00:40:37.005Z,61.80
2018-08-23T00:43:07.887Z,61.90
2018-08-23T00:45:36.053Z,61.90
2018-08-23T00:48:04.236Z,62.10
2018-08-23T00:50:53.095Z,62.50
2018-08-23T00:56:00.377Z,62.50
2018-08-23T00:58:28.510Z,63.40
2018-08-23T01:01:04.909Z,63.50
2018-08-23T01:03:35.196Z,62.70
2018-08-23T01:06:03.658Z,63.80
2018-08-23T01:08:32.760Z,62.80
2018-08-23T01:11:05.848Z,63.70
2018-08-23T01:13:34.937Z,62.60
2018-08-23T01:16:03.224Z,62.40
2018-08-23T01:18:31.369Z,62.60
2018-08-23T01:21:07.640Z,63.00
2018-08-23T01:23:37.572Z,63.30
2018-08-23T01:26:06.437Z,64.10
2018-08-23T01:28:34.921Z,64.10
2018-08-23T01:31:20.027Z,64.60
2018-08-23T01:33:48.465Z,64.70
2018-08-23T01:36:20.964Z,65.00
2018-08-23T01:38:49.110Z,64.90
2018-08-23T01:41:17.228Z,65.00
2018-08-23T01:43:45.369Z,65.60
2018-08-23T01:46:13.489Z,65.90
2018-08-23T01:48:44.914Z,65.90
2018-08-23T01:51:13.068Z,66.10
2018-08-23T01:53:41.532Z,66.10
2018-08-23T01:56:09.644Z,67.20
2018-08-23T01:58:37.823Z,66.40
2018-08-23T02:01:13.876Z,67.50
2018-08-23T02:03:42.144Z,67.60
2018-08-23T02:06:10.280Z,66.80
2018-08-23T02:08:38.382Z,67.00
2018-08-23T02:11:06.589Z,67.20
2018-08-23T02:13:34.711Z,67.40
2018-08-23T02:16:03.504Z,67.40
2018-08-23T02:18:32.200Z,67.80
2018-08-23T02:21:05.661Z,67.70
2018-08-23T02:23:35.609Z,68.70
2018-08-23T02:26:03.714Z,68.80
2018-08-23T02:28:31.869Z,68.00
2018-08-23T02:30:59.976Z,68.00
2018-08-23T02:33:28.114Z,68.00
2018-08-23T02:36:22.221Z,68.80
2018-08-23T02:39:08.506Z,68.40
2018-08-23T02:41:36.636Z,67.40
2018-08-23T02:44:04.821Z,67.20
2018-08-23T02:46:33.220Z,68.00
2018-08-23T02:49:01.378Z,67.20
2018-08-23T02:51:41.300Z,68.10
2018-08-23T02:54:11.541Z,67.50
2018-08-23T02:56:39.663Z,67.50
2018-08-23T02:59:07.876Z,67.70
2018-08-23T03:01:40.649Z,67.90
2018-08-23T03:04:11.382Z,68.10
2018-08-23T03:06:57.624Z,69.20
2018-08-23T03:11:58.065Z,68.90
2018-08-23T03:14:27.063Z,69.70
2018-08-23T03:17:35.273Z,68.80
2018-08-23T03:20:06.797Z,68.90
2018-08-23T03:22:35.265Z,69.20
2018-08-23T03:25:05.305Z,69.30
2018-08-23T03:27:33.474Z,70.10
2018-08-23T03:30:02.570Z,69.40
2018-08-23T03:32:30.885Z,69.60
2018-08-23T03:34:59.445Z,69.80
2018-08-23T03:37:27.596Z,70.70
2018-08-23T03:39:55.996Z,71.00
2018-08-23T03:42:24.355Z,71.10
2018-08-23T03:44:53.495Z,71.30
2018-08-23T03:47:21.876Z,71.60
2018-08-23T03:49:50.217Z,71.70
2018-08-23T03:52:19.580Z,71.80
2018-08-23T03:54:54.246Z,72.00
2018-08-23T03:57:22.428Z,72.00
2018-08-23T03:59:51.550Z,72.10
2018-08-23T04:02:20.964Z,72.20
2018-08-23T04:04:52.804Z,72.30
2018-08-23T04:07:21.034Z,72.40
2018-08-23T04:09:49.174Z,72.50
2018-08-23T04:12:17.305Z,72.70
2018-08-23T04:14:45.456Z,72.80
2018-08-23T04:17:13.578Z,73.00
2018-08-23T08:06:23.216Z,54.30
2018-08-23T08:08:51.876Z,54.60
2018-08-23T08:11:20.072Z,54.10
2018-08-23T08:13:52.603Z,54.20
2018-08-23T08:16:20.729Z,54.30
2018-08-23T08:18:48.867Z,54.60
2018-08-23T08:21:17.332Z,54.80
2018-08-23T08:23:50.894Z,55.10
2018-08-23T08:26:19.074Z,55.00
2018-08-23T08:28:47.497Z,55.20
2018-08-23T08:31:15.658Z,56.10
2018-08-23T08:33:43.837Z,55.40
2018-08-23T08:36:12.256Z,55.40
2018-08-23T08:38:40.437Z,55.20
2018-08-23T08:41:08.581Z,54.90
2018-08-23T08:43:36.729Z,55.00
2018-08-23T08:46:04.872Z,54.70
2018-08-23T08:48:34.845Z,54.50
2018-08-23T08:51:16.545Z,54.50
2018-08-23T08:53:45.000Z,54.40
2018-08-23T08:56:13.144Z,54.20
2018-08-23T08:58:42.012Z,54.20
2018-08-23T09:01:10.182Z,53.80
2018-08-23T09:03:38.785Z,53.50
2018-08-23T09:06:09.248Z,53.10
2018-08-23T09:08:38.225Z,52.80
2018-08-23T09:11:06.694Z,52.70
2018-08-23T09:13:40.115Z,52.80
2018-08-23T09:16:10.339Z,52.80
2018-08-23T09:18:41.643Z,52.50
2018-08-23T09:21:09.808Z,51.90
2018-08-23T09:23:37.961Z,51.50
2018-08-23T09:26:06.114Z,51.30
2018-08-23T09:28:34.255Z,51.20
2018-08-23T09:31:03.064Z,50.90
2018-08-23T09:33:31.248Z,50.80
2018-08-23T09:35:59.396Z,50.40
2018-08-23T09:38:27.567Z,50.30
2018-08-23T09:40:55.832Z,50.30
2018-08-23T09:43:24.024Z,50.00
2018-08-23T09:45:53.757Z,49.90
2018-08-23T09:48:21.909Z,49.90
2018-08-23T09:50:50.085Z,50.10
2018-08-23T09:53:25.156Z,50.10
2018-08-23T09:55:54.643Z,50.30
2018-08-23T09:58:28.160Z,50.40
2018-08-23T10:01:01.477Z,50.00
2018-08-23T10:03:35.089Z,49.50
2018-08-23T10:06:08.621Z,48.90
2018-08-23T10:08:42.258Z,48.80
2018-08-23T10:11:18.950Z,48.70
2018-08-23T10:13:52.433Z,48.70
2018-08-23T10:16:25.993Z,48.80
2018-08-23T10:18:57.313Z,48.90
2018-08-23T10:21:30.805Z,49.20
2018-08-23T10:24:05.977Z,49.30
2018-08-23T10:26:34.200Z,49.40
2018-08-23T10:29:02.393Z,49.60
2018-08-23T10:31:30.557Z,49.60
2018-08-23T10:33:58.964Z,49.90
2018-08-23T10:36:27.097Z,50.20
2018-08-23T10:38:55.290Z,50.10
2018-08-23T10:41:23.459Z,50.10
2018-08-23T10:43:51.665Z,49.80
2018-08-23T10:46:19.817Z,49.80
2018-08-23T10:48:47.976Z,50.00
2018-08-23T10:51:17.528Z,49.90
2018-08-23T10:53:45.708Z,50.00
2018-08-23T10:56:13.847Z,49.60
2018-08-23T10:58:41.992Z,48.90
2018-08-23T11:01:10.177Z,48.70
2018-08-23T11:03:38.818Z,48.30
2018-08-23T11:06:06.936Z,47.80
2018-08-23T11:08:36.567Z,47.50
2018-08-23T11:11:10.002Z,47.30
2018-08-23T11:13:43.525Z,47.40
2018-08-23T11:16:16.857Z,47.30
2018-08-23T11:18:50.194Z,47.20
2018-08-23T11:21:18.660Z,47.10
2018-08-23T11:23:47.224Z,46.80
2018-08-23T11:26:20.306Z,46.40
2018-08-23T11:28:48.980Z,45.90
2018-08-23T11:31:22.438Z,45.50
2018-08-23T11:33:50.713Z,45.10
2018-08-23T11:36:18.858Z,44.70
2018-08-23T11:38:47.024Z,44.10
2018-08-23T11:41:15.254Z,43.80
2018-08-23T11:43:43.391Z,43.40
2018-08-23T11:46:12.447Z,43.10
2018-08-23T11:48:40.984Z,42.60
2018-08-23T11:51:09.117Z,41.90
2018-08-23T11:53:37.593Z,41.00
2018-08-23T11:58:33.467Z,39.40
2018-08-23T12:01:07.112Z,39.40
2018-08-23T12:03:35.295Z,39.20
2018-08-23T12:20:51.433Z,36.00
2018-08-23T12:25:47.572Z,35.40
2018-08-23T12:30:49.022Z,35.40
2018-08-23T12:33:17.170Z,35.00
2018-08-23T12:35:45.370Z,34.90
2018-08-23T12:38:20.861Z,34.40
2018-08-23T12:40:54.440Z,34.70
2018-08-23T12:43:27.938Z,35.10
2018-08-23T12:46:00.647Z,35.20
2018-08-23T12:48:28.896Z,34.90
2018-08-23T12:50:57.473Z,34.40
2018-08-23T12:53:27.423Z,34.00
2018-08-23T12:55:55.537Z,33.80
2018-08-23T12:58:23.986Z,33.50
2018-08-23T13:00:52.141Z,33.20
2018-08-23T13:03:20.284Z,33.00
2018-08-23T13:05:48.504Z,32.80
2018-08-23T13:08:16.682Z,32.70
2018-08-23T13:10:44.817Z,32.30
2018-08-23T13:13:12.988Z,32.20
2018-08-23T13:15:41.141Z,32.10
2018-08-23T13:18:09.284Z,32.10
2018-08-23T13:20:37.483Z,32.10
2018-08-23T13:23:05.728Z,31.80
2018-08-23T13:25:33.866Z,31.80
2018-08-23T13:28:02.082Z,32.00
2018-08-23T13:30:30.200Z,32.00
2018-08-23T13:32:58.461Z,32.10
2018-08-23T13:35:26.653Z,32.00
2018-08-23T13:37:54.769Z,31.70
2018-08-23T13:40:22.947Z,31.50
2018-08-23T13:42:51.364Z,31.30
2018-08-23T13:45:19.585Z,31.20
2018-08-23T13:47:47.665Z,31.20
2018-08-23T13:50:15.855Z,31.50
2018-08-23T13:52:44.059Z,31.40
2018-08-23T13:55:12.279Z,31.50
2018-08-23T13:57:40.416Z,31.50
2018-08-23T14:00:12.832Z,31.80
2018-08-23T14:02:41.068Z,32.70
2018-08-23T14:05:09.145Z,32.30
2018-08-23T14:07:37.961Z,32.70
2018-08-23T14:10:06.408Z,32.80
2018-08-23T14:12:34.522Z,32.90
2018-08-23T14:15:02.629Z,33.20
2018-08-23T14:17:30.994Z,33.60
2018-08-23T14:19:59.113Z,33.80
2018-08-23T14:22:27.270Z,33.90
2018-08-23T14:24:55.985Z,33.90
2018-08-23T14:27:24.113Z,33.90
2018-08-23T14:29:52.224Z,33.90
2018-08-23T14:32:20.358Z,34.00
2018-08-23T14:34:48.472Z,34.20
2018-08-23T14:37:16.591Z,34.20
2018-08-23T14:39:44.717Z,34.20
2018-08-23T14:42:13.130Z,34.50
2018-08-23T14:44:41.248Z,34.70
2018-08-23T14:47:14.705Z,35.10
2018-08-23T14:49:42.876Z,35.40
2018-08-23T14:52:11.000Z,35.60
2018-08-23T14:54:43.309Z,35.90
2018-08-23T14:57:16.869Z,36.10
2018-08-23T14:59:45.491Z,36.10
2018-08-23T15:02:13.770Z,36.20
2018-08-23T15:04:47.751Z,36.30
2018-08-23T15:07:16.329Z,36.30
2018-08-23T15:09:44.634Z,36.40
2018-08-23T15:12:12.732Z,36.30
2018-08-23T15:14:40.872Z,36.30
2018-08-23T15:17:09.653Z,36.20
2018-08-23T15:19:37.920Z,36.10
2018-08-23T15:22:06.414Z,35.90
2018-08-23T15:24:34.495Z,35.60
2018-08-23T15:27:02.805Z,35.80
2018-08-23T15:29:31.641Z,35.80
2018-08-23T15:31:59.753Z,35.80
2018-08-23T15:34:27.880Z,35.90
2018-08-23T15:36:55.978Z,35.80
2018-08-23T15:39:24.134Z,35.80
2018-08-23T15:41:52.216Z,35.80
2018-08-23T15:44:20.316Z,35.90
2018-08-23T15:46:49.132Z,36.00
2018-08-23T15:49:17.568Z,36.20
2018-08-23T15:51:45.890Z,36.20
2018-08-23T15:54:17.781Z,36.20
2018-08-23T15:56:45.905Z,36.30
2018-08-23T15:59:14.174Z,36.40
2018-08-23T16:01:42.284Z,36.50
2018-08-23T16:04:10.592Z,36.50
2018-08-23T16:06:38.713Z,36.50
2018-08-23T16:09:08.501Z,36.50
2018-08-23T16:11:36.779Z,36.70
2018-08-23T16:14:04.928Z,37.10
2018-08-23T16:16:38.460Z,37.20
2018-08-23T16:19:11.936Z,37.30
2018-08-23T16:21:40.468Z,37.40
2018-08-23T16:24:08.745Z,37.40
2018-08-23T16:26:42.282Z,37.40
2018-08-23T16:29:10.673Z,37.40
2018-08-23T16:31:38.820Z,37.50
2018-08-23T16:34:06.954Z,37.50
2018-08-23T16:36:35.104Z,37.50
2018-08-23T16:39:03.299Z,37.70
2018-08-23T16:41:31.434Z,37.80
2018-08-23T16:43:59.642Z,38.00
2018-08-23T16:46:27.785Z,38.00
2018-08-23T16:48:55.905Z,38.10
2018-08-23T16:51:24.401Z,38.30
2018-08-23T16:53:52.554Z,38.40
2018-08-23T16:56:20.772Z,38.40
2018-08-23T16:58:49.514Z,38.30
2018-08-23T17:01:17.914Z,38.40
2018-08-23T17:03:51.518Z,38.50
2018-08-23T17:06:19.661Z,38.40
2018-08-23T17:08:47.832Z,38.40
2018-08-23T17:11:16.041Z,38.50
2018-08-23T17:13:44.168Z,38.00
2018-08-23T17:18:21.703Z,38.60
2018-08-23T17:20:49.785Z,38.70
2018-08-23T17:23:18.040Z,38.80
2018-08-23T17:25:46.304Z,38.20
2018-08-23T17:28:14.575Z,38.90
2018-08-23T17:30:42.769Z,39.00
2018-08-23T17:33:10.982Z,39.20
2018-08-23T17:35:39.104Z,39.30
2018-08-23T17:38:07.233Z,39.50
2018-08-23T17:40:35.425Z,39.60
2018-08-23T17:43:03.821Z,39.60
2018-08-23T17:45:31.933Z,39.80
2018-08-23T17:48:00.061Z,40.10
2018-08-23T17:50:28.240Z,40.20
2018-08-23T17:55:24.330Z,39.90
2018-08-23T17:57:52.560Z,40.60
2018-08-23T18:00:20.688Z,40.70
2018-08-23T18:02:48.853Z,40.80
2018-08-23T18:05:16.979Z,41.00
2018-08-23T18:07:45.119Z,41.10
2018-08-23T18:10:13.295Z,41.20
2018-08-23T18:12:41.808Z,41.30
2018-08-23T18:15:10.236Z,41.50
2018-08-23T18:17:39.571Z,41.60
2018-08-23T18:20:07.805Z,41.20
2018-08-23T18:22:36.320Z,42.00
2018-08-23T18:25:04.538Z,41.60
2018-08-23T18:27:32.752Z,42.40
2018-08-23T18:30:00.932Z,42.10
2018-08-23T18:32:29.149Z,42.20
2018-08-23T18:34:57.314Z,42.90
2018-08-23T18:37:25.504Z,42.50
2018-08-23T18:39:53.571Z,43.10
2018-08-23T18:42:21.792Z,42.70
2018-08-23T18:44:49.983Z,43.40
2018-08-23T18:47:18.114Z,43.10
2018-08-23T18:49:46.332Z,43.20
2018-08-23T18:52:14.495Z,43.90
2018-08-23T18:54:42.694Z,44.10
2018-08-23T18:57:10.805Z,44.20
2018-08-23T18:59:38.936Z,44.00
2018-08-23T19:02:07.145Z,45.10
2018-08-23T19:04:35.271Z,46.10
2018-08-23T19:09:31.594Z,47.60
2018-08-23T19:11:59.742Z,49.10
2018-08-23T19:14:28.165Z,49.20
2018-08-23T19:17:01.573Z,51.00
2018-08-23T19:19:30.449Z,50.80
2018-08-23T19:21:58.598Z,51.40
2018-08-23T19:24:26.770Z,52.10
2018-08-23T19:26:54.904Z,52.90
2018-08-23T19:29:23.069Z,53.70
2018-08-23T19:31:51.224Z,54.60
2018-08-23T19:34:19.380Z,55.50
2018-08-23T19:36:47.581Z,56.10
2018-08-23T19:39:15.746Z,56.50
2018-08-23T19:41:43.888Z,56.40
2018-08-23T19:44:12.020Z,56.60
2018-08-23T19:46:45.632Z,57.90
2018-08-23T19:49:19.114Z,57.30
2018-08-23T19:51:47.690Z,56.40
2018-08-23T19:54:15.835Z,56.70
2018-08-23T19:56:44.037Z,57.30
2018-08-23T19:59:12.184Z,56.20
2018-08-23T20:01:40.373Z,57.00
2018-08-23T20:04:09.565Z,56.00
2018-08-23T20:06:37.855Z,55.80
2018-08-23T20:09:07.652Z,56.50
2018-08-23T20:11:35.861Z,56.50
2018-08-23T20:14:04.028Z,57.00
2018-08-23T20:16:52.932Z,57.00
2018-08-23T20:19:21.074Z,57.50
2018-08-23T20:21:49.438Z,58.00
2018-08-23T20:24:17.642Z,58.80
2018-08-23T20:26:45.843Z,59.10
2018-08-23T20:29:13.968Z,59.10
2018-08-23T20:31:43.152Z,59.50
